SBOSBO SVQ / LEZL
Speedbird OnlineSpeedbird Online SVQ / LEZL

Sevilla Airport
09:37 19.2°C

Location Sevilla, Spain
Latitude: 37.417999267578125
Longitude: -5.8931097984313965
Web Airport Website | Wikipedia
Altitude 34 Meter / 112 Feet
Distance 1,637 KM / 1,017 Miles
from London.
Time Zone UTC +2 hours (Europe/Madrid)
Codes IATA: SVQ
ICAO: LEZL
Currency £1 equals EUR 1.15
Runways
RunwayLength (m)Surface
093362Asphalt
273362Asphalt
Radio
TypeDescriptionFrequency
APPSevilla Aproximacion125.8
ATISATIS118.175
GNDGND121.7
Live ATC
METAR LEZL 060700Z VRB02KT CAVOK 19/14 Q1021 NOSIG
TAF TAF LEZL 060200Z 0603/0703 VRB03KT CAVOK TX30/0615Z TN18/0606Z BECMG 0609/0611 09010KT BECMG 0618/0620 VRB03KT
Weather As Of 06 Oct 2022 09:37
Description Clear sky
Wind 6 km/h from North (340°)
Cloud Cover 0%
Precipitation Rain: none, Snow: none
Sunrise 08:23
Sunset 20:00
Lounges SALA VIP Azahar, Main Terminal
Rotations During the last 90 days there were
52 flights from LGW
59 flights to LGW


© 2017-2022 Speedbird Online